sensor_id;sensor_type;location;lat;lon;timestamp;temperature;humidity
38237;DHT22;50101;49.438;11.098;2022-12-22T00:02:19;19.10;55.50
38237;DHT22;50101;49.438;11.098;2022-12-22T00:05:16;19.00;55.50
38237;DHT22;50101;49.438;11.098;2022-12-22T00:08:02;19.00;55.40
38237;DHT22;50101;49.438;11.098;2022-12-22T00:10:47;19.00;55.50
38237;DHT22;50101;49.438;11.098;2022-12-22T00:13:33;19.00;56.00
38237;DHT22;50101;49.438;11.098;2022-12-22T00:16:19;19.00;55.50
38237;DHT22;50101;49.438;11.098;2022-12-22T00:19:11;19.00;55.50
38237;DHT22;50101;49.438;11.098;2022-12-22T00:22:00;19.00;55.00
38237;DHT22;50101;49.438;11.098;2022-12-22T00:24:46;19.00;55.50
38237;DHT22;50101;49.438;11.098;2022-12-22T00:27:32;19.00;55.40
38237;DHT22;50101;49.438;11.098;2022-12-22T00:30:17;19.00;55.50
38237;DHT22;50101;49.438;11.098;2022-12-22T00:33:03;19.00;55.40
38237;DHT22;50101;49.438;11.098;2022-12-22T00:35:50;19.00;55.40
38237;DHT22;50101;49.438;11.098;2022-12-22T00:38:35;19.00;55.50
38237;DHT22;50101;49.438;11.098;2022-12-22T00:41:20;19.00;55.40
38237;DHT22;50101;49.438;11.098;2022-12-22T00:44:06;19.00;55.40
38237;DHT22;50101;49.438;11.098;2022-12-22T00:46:51;18.90;55.50
38237;DHT22;50101;49.438;11.098;2022-12-22T00:49:38;18.90;54.90
38237;DHT22;50101;49.438;11.098;2022-12-22T00:52:24;18.90;55.50
38237;DHT22;50101;49.438;11.098;2022-12-22T00:55:18;18.90;55.40
38237;DHT22;50101;49.438;11.098;2022-12-22T00:58:07;19.00;55.40
38237;DHT22;50101;49.438;11.098;2022-12-22T01:00:55;18.90;54.90
38237;DHT22;50101;49.438;11.098;2022-12-22T01:03:40;18.90;55.40
38237;DHT22;50101;49.438;11.098;2022-12-22T01:06:29;18.90;55.40
38237;DHT22;50101;49.438;11.098;2022-12-22T01:09:16;18.90;55.50
38237;DHT22;50101;49.438;11.098;2022-12-22T01:12:03;18.90;54.90
38237;DHT22;50101;49.438;11.098;2022-12-22T01:14:50;18.90;55.50
38237;DHT22;50101;49.438;11.098;2022-12-22T01:17:35;18.90;55.40
38237;DHT22;50101;49.438;11.098;2022-12-22T01:20:20;18.80;55.40
38237;DHT22;50101;49.438;11.098;2022-12-22T01:23:09;18.90;55.40
38237;DHT22;50101;49.438;11.098;2022-12-22T01:25:55;18.90;55.40
38237;DHT22;50101;49.438;11.098;2022-12-22T01:28:40;18.90;55.40
38237;DHT22;50101;49.438;11.098;2022-12-22T01:31:30;18.80;55.30
38237;DHT22;50101;49.438;11.098;2022-12-22T01:34:16;18.90;55.40
38237;DHT22;50101;49.438;11.098;2022-12-22T01:37:01;18.80;55.30
38237;DHT22;50101;49.438;11.098;2022-12-22T01:39:47;18.80;55.30
38237;DHT22;50101;49.438;11.098;2022-12-22T01:42:33;18.80;55.30
38237;DHT22;50101;49.438;11.098;2022-12-22T01:48:04;18.80;55.30
38237;DHT22;50101;49.438;11.098;2022-12-22T01:50:49;18.80;56.00
38237;DHT22;50101;49.438;11.098;2022-12-22T01:53:35;18.80;55.30
38237;DHT22;50101;49.438;11.098;2022-12-22T01:56:20;18.80;55.30
38237;DHT22;50101;49.438;11.098;2022-12-22T01:59:05;18.80;55.30
38237;DHT22;50101;49.438;11.098;2022-12-22T02:01:50;18.80;55.30
38237;DHT22;50101;49.438;11.098;2022-12-22T02:04:39;18.80;55.30
38237;DHT22;50101;49.438;11.098;2022-12-22T02:17:03;18.80;55.30
38237;DHT22;50101;49.438;11.098;2022-12-22T02:20:28;18.80;55.30
38237;DHT22;50101;49.438;11.098;2022-12-22T02:26:37;18.80;55.40
38237;DHT22;50101;49.438;11.098;2022-12-22T02:29:35;18.80;55.10
38237;DHT22;50101;49.438;11.098;2022-12-22T02:32:24;18.70;55.40
38237;DHT22;50101;49.438;11.098;2022-12-22T02:35:15;18.80;54.90
38237;DHT22;50101;49.438;11.098;2022-12-22T02:41:03;18.70;55.20
38237;DHT22;50101;49.438;11.098;2022-12-22T02:44:34;18.80;55.30
38237;DHT22;50101;49.438;11.098;2022-12-22T02:47:47;18.80;54.90
38237;DHT22;50101;49.438;11.098;2022-12-22T02:50:41;18.70;55.20
38237;DHT22;50101;49.438;11.098;2022-12-22T02:53:27;18.80;55.30
38237;DHT22;50101;49.438;11.098;2022-12-22T02:56:14;18.70;55.40
38237;DHT22;50101;49.438;11.098;2022-12-22T02:58:59;18.70;55.30
38237;DHT22;50101;49.438;11.098;2022-12-22T03:01:45;18.70;54.70
38237;DHT22;50101;49.438;11.098;2022-12-22T03:04:30;18.70;55.30
38237;DHT22;50101;49.438;11.098;2022-12-22T03:07:15;18.70;55.30
38237;DHT22;50101;49.438;11.098;2022-12-22T03:10:01;18.70;55.30
38237;DHT22;50101;49.438;11.098;2022-12-22T03:12:46;18.70;55.30
38237;DHT22;50101;49.438;11.098;2022-12-22T03:15:32;18.70;55.60
38237;DHT22;50101;49.438;11.098;2022-12-22T03:18:17;18.70;55.30
38237;DHT22;50101;49.438;11.098;2022-12-22T03:21:03;18.60;54.70
38237;DHT22;50101;49.438;11.098;2022-12-22T03:23:48;18.60;55.30
38237;DHT22;50101;49.438;11.098;2022-12-22T03:26:34;18.70;55.30
38237;DHT22;50101;49.438;11.098;2022-12-22T03:29:00;18.70;55.30
38237;DHT22;50101;49.438;11.098;2022-12-22T03:31:27;18.60;55.20
38237;DHT22;50101;49.438;11.098;2022-12-22T03:33:54;18.70;55.30
38237;DHT22;50101;49.438;11.098;2022-12-22T03:36:21;18.60;55.20
38237;DHT22;50101;49.438;11.098;2022-12-22T03:38:47;18.60;55.30
38237;DHT22;50101;49.438;11.098;2022-12-22T03:41:14;18.60;55.30
38237;DHT22;50101;49.438;11.098;2022-12-22T03:43:59;18.60;55.30
38237;DHT22;50101;49.438;11.098;2022-12-22T03:46:44;18.60;55.30
38237;DHT22;50101;49.438;11.098;2022-12-22T03:49:11;18.60;55.30
38237;DHT22;50101;49.438;11.098;2022-12-22T03:51:41;18.60;55.30
38237;DHT22;50101;49.438;11.098;2022-12-22T03:54:09;18.60;55.30
38237;DHT22;50101;49.438;11.098;2022-12-22T03:56:37;18.60;55.30
38237;DHT22;50101;49.438;11.098;2022-12-22T03:59:04;18.60;55.30
38237;DHT22;50101;49.438;11.098;2022-12-22T04:01:32;18.60;55.30
38237;DHT22;50101;49.438;11.098;2022-12-22T04:04:00;18.60;55.40
38237;DHT22;50101;49.438;11.098;2022-12-22T04:06:26;18.60;55.40
38237;DHT22;50101;49.438;11.098;2022-12-22T04:08:53;18.60;55.50
38237;DHT22;50101;49.438;11.098;2022-12-22T04:11:20;18.60;55.40
38237;DHT22;50101;49.438;11.098;2022-12-22T04:14:05;18.60;55.40
38237;DHT22;50101;49.438;11.098;2022-12-22T04:16:32;18.60;55.40
38237;DHT22;50101;49.438;11.098;2022-12-22T04:18:58;18.60;55.50
38237;DHT22;50101;49.438;11.098;2022-12-22T04:21:26;18.60;55.50
38237;DHT22;50101;49.438;11.098;2022-12-22T04:23:52;18.60;55.50
38237;DHT22;50101;49.438;11.098;2022-12-22T04:26:22;18.60;55.40
38237;DHT22;50101;49.438;11.098;2022-12-22T04:28:50;18.60;55.40
38237;DHT22;50101;49.438;11.098;2022-12-22T04:31:18;18.60;55.40
38237;DHT22;50101;49.438;11.098;2022-12-22T04:33:45;18.50;55.40
38237;DHT22;50101;49.438;11.098;2022-12-22T04:36:12;18.60;55.50
38237;DHT22;50101;49.438;11.098;2022-12-22T04:38:39;18.60;55.40
38237;DHT22;50101;49.438;11.098;2022-12-22T04:41:06;18.50;55.30
38237;DHT22;50101;49.438;11.098;2022-12-22T04:43:33;18.60;55.30
38237;DHT22;50101;49.438;11.098;2022-12-22T04:46:00;18.60;55.50
38237;DHT22;50101;49.438;11.098;2022-12-22T04:48:28;18.50;55.40
38237;DHT22;50101;49.438;11.098;2022-12-22T04:50:56;18.60;55.60
38237;DHT22;50101;49.438;11.098;2022-12-22T04:53:24;18.60;55.60
38237;DHT22;50101;49.438;11.098;2022-12-22T04:55:58;18.50;55.40
38237;DHT22;50101;49.438;11.098;2022-12-22T04:58:26;18.60;55.50
38237;DHT22;50101;49.438;11.098;2022-12-22T05:00:53;18.50;55.30
38237;DHT22;50101;49.438;11.098;2022-12-22T05:03:20;18.60;55.50
38237;DHT22;50101;49.438;11.098;2022-12-22T05:05:47;18.50;55.30
38237;DHT22;50101;49.438;11.098;2022-12-22T05:08:14;18.60;55.50
38237;DHT22;50101;49.438;11.098;2022-12-22T05:10:41;18.50;55.30
38237;DHT22;50101;49.438;11.098;2022-12-22T05:13:07;18.50;55.40
38237;DHT22;50101;49.438;11.098;2022-12-22T05:15:34;18.50;55.40
38237;DHT22;50101;49.438;11.098;2022-12-22T05:18:02;18.50;55.40
38237;DHT22;50101;49.438;11.098;2022-12-22T05:20:29;18.50;54.80
38237;DHT22;50101;49.438;11.098;2022-12-22T05:22:57;18.60;55.40
38237;DHT22;50101;49.438;11.098;2022-12-22T05:25:24;18.50;55.20
38237;DHT22;50101;49.438;11.098;2022-12-22T05:27:56;18.60;55.40
38237;DHT22;50101;49.438;11.098;2022-12-22T05:30:23;18.50;54.90
38237;DHT22;50101;49.438;11.098;2022-12-22T05:32:50;18.50;55.40
38237;DHT22;50101;49.438;11.098;2022-12-22T05:35:16;18.60;55.50
38237;DHT22;50101;49.438;11.098;2022-12-22T05:37:43;18.60;55.60
38237;DHT22;50101;49.438;11.098;2022-12-22T05:40:10;18.60;55.00
38237;DHT22;50101;49.438;11.098;2022-12-22T05:42:37;17.80;54.80
38237;DHT22;50101;49.438;11.098;2022-12-22T05:45:14;18.60;55.50
38237;DHT22;50101;49.438;11.098;2022-12-22T05:47:43;18.60;55.60
38237;DHT22;50101;49.438;11.098;2022-12-22T05:50:11;18.60;55.60
38237;DHT22;50101;49.438;11.098;2022-12-22T05:52:39;18.60;55.60
38237;DHT22;50101;49.438;11.098;2022-12-22T05:55:06;18.60;55.50
38237;DHT22;50101;49.438;11.098;2022-12-22T05:57:34;18.60;55.50
38237;DHT22;50101;49.438;11.098;2022-12-22T06:00:02;18.60;55.50
38237;DHT22;50101;49.438;11.098;2022-12-22T06:02:29;18.50;55.30
38237;DHT22;50101;49.438;11.098;2022-12-22T06:04:55;18.50;55.20
38237;DHT22;50101;49.438;11.098;2022-12-22T06:07:22;18.50;55.20
38237;DHT22;50101;49.438;11.098;2022-12-22T06:09:49;18.50;55.10
38237;DHT22;50101;49.438;11.098;2022-12-22T06:12:15;18.50;55.10
38237;DHT22;50101;49.438;11.098;2022-12-22T06:14:42;18.60;55.20
38237;DHT22;50101;49.438;11.098;2022-12-22T06:17:09;18.60;55.20
38237;DHT22;50101;49.438;11.098;2022-12-22T06:19:35;18.60;55.10
38237;DHT22;50101;49.438;11.098;2022-12-22T06:22:02;18.60;55.10
38237;DHT22;50101;49.438;11.098;2022-12-22T06:24:29;18.60;55.10
38237;DHT22;50101;49.438;11.098;2022-12-22T06:26:55;18.70;55.20
38237;DHT22;50101;49.438;11.098;2022-12-22T06:29:22;18.70;55.20
38237;DHT22;50101;49.438;11.098;2022-12-22T06:31:49;18.70;55.20
38237;DHT22;50101;49.438;11.098;2022-12-22T06:34:16;18.70;55.20
38237;DHT22;50101;49.438;11.098;2022-12-22T06:36:44;18.70;55.20
38237;DHT22;50101;49.438;11.098;2022-12-22T06:39:12;18.70;55.20
38237;DHT22;50101;49.438;11.098;2022-12-22T06:41:39;18.70;55.30
38237;DHT22;50101;49.438;11.098;2022-12-22T06:44:25;18.70;55.30
38237;DHT22;50101;49.438;11.098;2022-12-22T06:46:52;18.70;55.30
38237;DHT22;50101;49.438;11.098;2022-12-22T06:49:19;18.70;55.40
38237;DHT22;50101;49.438;11.098;2022-12-22T06:51:45;18.70;55.70
38237;DHT22;50101;49.438;11.098;2022-12-22T06:54:12;18.70;56.10
38237;DHT22;50101;49.438;11.098;2022-12-22T06:56:39;18.70;56.20
38237;DHT22;50101;49.438;11.098;2022-12-22T06:59:06;18.70;56.10
38237;DHT22;50101;49.438;11.098;2022-12-22T07:01:32;18.80;56.30
38237;DHT22;50101;49.438;11.098;2022-12-22T07:03:59;18.80;56.40
38237;DHT22;50101;49.438;11.098;2022-12-22T07:06:26;18.90;56.40
38237;DHT22;50101;49.438;11.098;2022-12-22T07:08:52;19.00;56.40
38237;DHT22;50101;49.438;11.098;2022-12-22T07:11:19;19.00;56.80
38237;DHT22;50101;49.438;11.098;2022-12-22T07:13:46;19.10;56.80
38237;DHT22;50101;49.438;11.098;2022-12-22T07:16:13;19.10;56.50
38237;DHT22;50101;49.438;11.098;2022-12-22T07:18:41;19.00;56.90
38237;DHT22;50101;49.438;11.098;2022-12-22T07:21:12;19.00;56.90
38237;DHT22;50101;49.438;11.098;2022-12-22T07:23:39;19.00;56.90
38237;DHT22;50101;49.438;11.098;2022-12-22T07:26:07;19.00;56.60
38237;DHT22;50101;49.438;11.098;2022-12-22T07:28:35;19.00;56.80
38237;DHT22;50101;49.438;11.098;2022-12-22T07:31:03;19.00;56.90
38237;DHT22;50101;49.438;11.098;2022-12-22T07:33:31;19.00;56.80
38237;DHT22;50101;49.438;11.098;2022-12-22T07:36:15;18.90;56.70
38237;DHT22;50101;49.438;11.098;2022-12-22T07:38:45;19.00;56.80
38237;DHT22;50101;49.438;11.098;2022-12-22T07:41:14;19.00;56.80
38237;DHT22;50101;49.438;11.098;2022-12-22T07:44:01;19.00;56.80
38237;DHT22;50101;49.438;11.098;2022-12-22T07:46:31;19.00;56.90
38237;DHT22;50101;49.438;11.098;2022-12-22T07:48:58;19.00;56.90
38237;DHT22;50101;49.438;11.098;2022-12-22T07:51:43;19.00;56.30
38237;DHT22;50101;49.438;11.098;2022-12-22T07:54:12;19.00;56.90
38237;DHT22;50101;49.438;11.098;2022-12-22T07:56:40;19.00;56.80
38237;DHT22;50101;49.438;11.098;2022-12-22T07:59:08;19.00;56.90
38237;DHT22;50101;49.438;11.098;2022-12-22T08:01:35;19.10;56.40
38237;DHT22;50101;49.438;11.098;2022-12-22T08:04:02;19.00;56.70
38237;DHT22;50101;49.438;11.098;2022-12-22T08:06:31;19.00;56.60
38237;DHT22;50101;49.438;11.098;2022-12-22T08:08:59;19.10;56.80
38237;DHT22;50101;49.438;11.098;2022-12-22T08:11:26;19.10;56.80
38237;DHT22;50101;49.438;11.098;2022-12-22T08:13:53;19.10;56.70
38237;DHT22;50101;49.438;11.098;2022-12-22T08:16:26;19.10;56.40
38237;DHT22;50101;49.438;11.098;2022-12-22T08:18:53;19.20;56.70
38237;DHT22;50101;49.438;11.098;2022-12-22T08:21:20;19.20;56.70
38237;DHT22;50101;49.438;11.098;2022-12-22T08:23:46;19.20;56.50
38237;DHT22;50101;49.438;11.098;2022-12-22T08:26:25;19.20;56.50
38237;DHT22;50101;49.438;11.098;2022-12-22T08:29:02;19.20;56.10
38237;DHT22;50101;49.438;11.098;2022-12-22T08:31:29;19.20;56.50
38237;DHT22;50101;49.438;11.098;2022-12-22T08:33:59;19.20;56.50
38237;DHT22;50101;49.438;11.098;2022-12-22T08:36:29;20.90;57.80
38237;DHT22;50101;49.438;11.098;2022-12-22T08:38:59;19.20;56.00
38237;DHT22;50101;49.438;11.098;2022-12-22T08:41:26;19.20;56.50
38237;DHT22;50101;49.438;11.098;2022-12-22T08:44:12;19.20;56.30
38237;DHT22;50101;49.438;11.098;2022-12-22T08:46:39;19.30;56.40
38237;DHT22;50101;49.438;11.098;2022-12-22T08:49:06;19.30;56.40
38237;DHT22;50101;49.438;11.098;2022-12-22T08:51:32;19.30;56.50
38237;DHT22;50101;49.438;11.098;2022-12-22T08:53:59;19.30;56.50
38237;DHT22;50101;49.438;11.098;2022-12-22T08:56:31;19.30;56.40
38237;DHT22;50101;49.438;11.098;2022-12-22T08:58:58;19.30;56.10
38237;DHT22;50101;49.438;11.098;2022-12-22T09:01:24;19.30;55.30
38237;DHT22;50101;49.438;11.098;2022-12-22T09:03:52;19.30;56.10
38237;DHT22;50101;49.438;11.098;2022-12-22T09:06:21;19.30;56.20
38237;DHT22;50101;49.438;11.098;2022-12-22T09:08:58;19.30;56.30
38237;DHT22;50101;49.438;11.098;2022-12-22T09:11:26;19.30;56.30
38237;DHT22;50101;49.438;11.098;2022-12-22T09:13:54;19.30;56.20
38237;DHT22;50101;49.438;11.098;2022-12-22T09:16:23;19.30;56.30
38237;DHT22;50101;49.438;11.098;2022-12-22T09:18:51;19.40;56.30
38237;DHT22;50101;49.438;11.098;2022-12-22T09:21:18;19.40;56.30
38237;DHT22;50101;49.438;11.098;2022-12-22T09:23:44;19.40;55.90
38237;DHT22;50101;49.438;11.098;2022-12-22T09:26:14;19.40;56.00
38237;DHT22;50101;49.438;11.098;2022-12-22T09:28:41;19.40;56.20
38237;DHT22;50101;49.438;11.098;2022-12-22T09:31:16;19.40;55.80
38237;DHT22;50101;49.438;11.098;2022-12-22T09:33:43;19.40;56.30
38237;DHT22;50101;49.438;11.098;2022-12-22T09:36:14;19.40;56.30
38237;DHT22;50101;49.438;11.098;2022-12-22T09:38:42;19.40;56.40
38237;DHT22;50101;49.438;11.098;2022-12-22T09:41:14;19.40;56.30
38237;DHT22;50101;49.438;11.098;2022-12-22T09:43:41;19.40;56.40
38237;DHT22;50101;49.438;11.098;2022-12-22T09:46:19;19.40;56.30
38237;DHT22;50101;49.438;11.098;2022-12-22T09:48:47;19.50;56.40
38237;DHT22;50101;49.438;11.098;2022-12-22T09:51:15;19.50;55.50
38237;DHT22;50101;49.438;11.098;2022-12-22T09:53:54;19.50;56.10
38237;DHT22;50101;49.438;11.098;2022-12-22T09:56:24;19.50;56.20
38237;DHT22;50101;49.438;11.098;2022-12-22T09:58:51;19.50;56.10
38237;DHT22;50101;49.438;11.098;2022-12-22T10:07:32;19.50;56.10
38237;DHT22;50101;49.438;11.098;2022-12-22T10:10:22;19.50;56.00
38237;DHT22;50101;49.438;11.098;2022-12-22T10:13:00;19.50;55.90
38237;DHT22;50101;49.438;11.098;2022-12-22T10:15:39;19.60;56.00
38237;DHT22;50101;49.438;11.098;2022-12-22T10:18:18;19.60;56.10
38237;DHT22;50101;49.438;11.098;2022-12-22T10:20:47;19.60;56.00
38237;DHT22;50101;49.438;11.098;2022-12-22T10:23:37;19.60;56.10
38237;DHT22;50101;49.438;11.098;2022-12-22T10:26:09;19.60;56.00
38237;DHT22;50101;49.438;11.098;2022-12-22T10:31:33;19.60;55.60
38237;DHT22;50101;49.438;11.098;2022-12-22T10:34:18;19.60;55.50
38237;DHT22;50101;49.438;11.098;2022-12-22T10:36:48;19.60;55.90
38237;DHT22;50101;49.438;11.098;2022-12-22T10:39:27;19.70;56.00
38237;DHT22;50101;49.438;11.098;2022-12-22T10:41:59;19.60;55.90
38237;DHT22;50101;49.438;11.098;2022-12-22T10:44:31;19.60;56.00
38237;DHT22;50101;49.438;11.098;2022-12-22T10:47:13;19.60;55.90
38237;DHT22;50101;49.438;11.098;2022-12-22T10:49:48;19.60;55.70
38237;DHT22;50101;49.438;11.098;2022-12-22T10:52:25;19.60;55.90
38237;DHT22;50101;49.438;11.098;2022-12-22T10:55:33;19.60;55.80
38237;DHT22;50101;49.438;11.098;2022-12-22T10:58:13;19.50;55.70
38237;DHT22;50101;49.438;11.098;2022-12-22T11:00:41;19.60;55.90
38237;DHT22;50101;49.438;11.098;2022-12-22T11:03:10;19.50;55.80
38237;DHT22;50101;49.438;11.098;2022-12-22T11:05:49;19.50;55.90
38237;DHT22;50101;49.438;11.098;2022-12-22T11:08:18;19.60;55.70
38237;DHT22;50101;49.438;11.098;2022-12-22T11:10:56;19.60;55.30
38237;DHT22;50101;49.438;11.098;2022-12-22T11:16:24;19.60;56.60
38237;DHT22;50101;49.438;11.098;2022-12-22T11:19:29;19.60;55.90
38237;DHT22;50101;49.438;11.098;2022-12-22T11:22:05;19.50;56.10
38237;DHT22;50101;49.438;11.098;2022-12-22T11:27:42;19.60;55.70
38237;DHT22;50101;49.438;11.098;2022-12-22T11:30:17;19.60;55.90
38237;DHT22;50101;49.438;11.098;2022-12-22T11:33:00;19.60;55.70
38237;DHT22;50101;49.438;11.098;2022-12-22T11:35:50;19.60;56.00
38237;DHT22;50101;49.438;11.098;2022-12-22T11:39:01;19.60;56.00
38237;DHT22;50101;49.438;11.098;2022-12-22T11:44:29;19.60;55.70
38237;DHT22;50101;49.438;11.098;2022-12-22T11:49:39;19.60;55.80
38237;DHT22;50101;49.438;11.098;2022-12-22T11:52:37;19.60;55.60
38237;DHT22;50101;49.438;11.098;2022-12-22T12:00:33;19.60;55.80
38237;DHT22;50101;49.438;11.098;2022-12-22T12:03:39;19.60;56.60
38237;DHT22;50101;49.438;11.098;2022-12-22T12:06:22;19.50;55.90
38237;DHT22;50101;49.438;11.098;2022-12-22T12:09:10;19.50;56.10
38237;DHT22;50101;49.438;11.098;2022-12-22T12:14:43;19.50;55.90
38237;DHT22;50101;49.438;11.098;2022-12-22T12:23:04;19.50;55.90
38237;DHT22;50101;49.438;11.098;2022-12-22T12:30:48;19.50;55.90
38237;DHT22;50101;49.438;11.098;2022-12-22T12:33:26;19.50;55.70
38237;DHT22;50101;49.438;11.098;2022-12-22T12:44:02;19.50;55.80
38237;DHT22;50101;49.438;11.098;2022-12-22T12:52:11;19.50;55.70
38237;DHT22;50101;49.438;11.098;2022-12-22T12:54:45;19.50;55.70
38237;DHT22;50101;49.438;11.098;2022-12-22T12:57:28;19.50;55.80
38237;DHT22;50101;49.438;11.098;2022-12-22T12:59:57;19.50;55.80
38237;DHT22;50101;49.438;11.098;2022-12-22T13:05:02;19.40;55.90
38237;DHT22;50101;49.438;11.098;2022-12-22T13:08:05;19.50;55.90
38237;DHT22;50101;49.438;11.098;2022-12-22T13:10:38;19.50;55.90
38237;DHT22;50101;49.438;11.098;2022-12-22T13:13:51;19.50;56.00
38237;DHT22;50101;49.438;11.098;2022-12-22T13:21:16;19.50;56.10
38237;DHT22;50101;49.438;11.098;2022-12-22T13:24:20;19.50;56.20
38237;DHT22;50101;49.438;11.098;2022-12-22T13:26:53;19.50;56.30
38237;DHT22;50101;49.438;11.098;2022-12-22T13:31:56;19.50;56.00
38237;DHT22;50101;49.438;11.098;2022-12-22T13:34:35;19.50;56.00
38237;DHT22;50101;49.438;11.098;2022-12-22T13:37:24;19.50;56.30
38237;DHT22;50101;49.438;11.098;2022-12-22T13:42:45;19.50;56.20
38237;DHT22;50101;49.438;11.098;2022-12-22T13:47:58;19.50;56.00
38237;DHT22;50101;49.438;11.098;2022-12-22T13:50:31;19.50;56.10
38237;DHT22;50101;49.438;11.098;2022-12-22T13:53:00;19.50;56.10
38237;DHT22;50101;49.438;11.098;2022-12-22T13:55:29;19.50;56.00
38237;DHT22;50101;49.438;11.098;2022-12-22T13:58:19;19.50;55.90
38237;DHT22;50101;49.438;11.098;2022-12-22T14:01:11;19.50;56.10
38237;DHT22;50101;49.438;11.098;2022-12-22T14:03:54;19.60;56.10
38237;DHT22;50101;49.438;11.098;2022-12-22T14:06:38;19.50;56.10
38237;DHT22;50101;49.438;11.098;2022-12-22T14:11:36;19.50;55.50
38237;DHT22;50101;49.438;11.098;2022-12-22T14:14:17;19.60;56.00
38237;DHT22;50101;49.438;11.098;2022-12-22T14:16:47;19.50;56.00
38237;DHT22;50101;49.438;11.098;2022-12-22T14:19:16;19.60;56.40
38237;DHT22;50101;49.438;11.098;2022-12-22T14:21:47;19.60;56.40
38237;DHT22;50101;49.438;11.098;2022-12-22T14:24:24;19.60;56.00
38237;DHT22;50101;49.438;11.098;2022-12-22T14:26:56;19.60;56.00
38237;DHT22;50101;49.438;11.098;2022-12-22T14:29:26;19.60;56.10
38237;DHT22;50101;49.438;11.098;2022-12-22T14:31:56;19.50;56.20
38237;DHT22;50101;49.438;11.098;2022-12-22T14:34:29;19.60;56.20
38237;DHT22;50101;49.438;11.098;2022-12-22T14:36:56;19.60;56.30
38237;DHT22;50101;49.438;11.098;2022-12-22T14:39:29;19.60;56.20
38237;DHT22;50101;49.438;11.098;2022-12-22T14:42:04;19.60;56.10
38237;DHT22;50101;49.438;11.098;2022-12-22T14:44:44;19.60;55.70
38237;DHT22;50101;49.438;11.098;2022-12-22T14:52:18;19.60;56.40
38237;DHT22;50101;49.438;11.098;2022-12-22T14:54:47;19.60;56.30
38237;DHT22;50101;49.438;11.098;2022-12-22T14:57:19;19.60;56.40
38237;DHT22;50101;49.438;11.098;2022-12-22T15:03:00;19.60;56.50
38237;DHT22;50101;49.438;11.098;2022-12-22T15:05:35;19.70;56.30
38237;DHT22;50101;49.438;11.098;2022-12-22T15:08:05;19.70;56.80
38237;DHT22;50101;49.438;11.098;2022-12-22T15:10:41;19.70;56.40
38237;DHT22;50101;49.438;11.098;2022-12-22T15:13:27;19.70;56.90
38237;DHT22;50101;49.438;11.098;2022-12-22T15:15:55;19.70;56.90
38237;DHT22;50101;49.438;11.098;2022-12-22T15:18:25;19.80;57.10
38237;DHT22;50101;49.438;11.098;2022-12-22T15:20:53;19.80;57.10
38237;DHT22;50101;49.438;11.098;2022-12-22T15:23:20;19.80;57.20
38237;DHT22;50101;49.438;11.098;2022-12-22T15:25:47;19.80;57.20
38237;DHT22;50101;49.438;11.098;2022-12-22T15:28:14;19.80;57.40
38237;DHT22;50101;49.438;11.098;2022-12-22T15:30:41;19.80;57.50
38237;DHT22;50101;49.438;11.098;2022-12-22T15:33:12;19.80;57.50
38237;DHT22;50101;49.438;11.098;2022-12-22T15:35:40;19.90;57.40
38237;DHT22;50101;49.438;11.098;2022-12-22T15:38:15;19.90;57.90
38237;DHT22;50101;49.438;11.098;2022-12-22T15:40:43;19.90;57.20
38237;DHT22;50101;49.438;11.098;2022-12-22T15:43:10;19.90;57.70
38237;DHT22;50101;49.438;11.098;2022-12-22T15:45:57;19.90;57.70
38237;DHT22;50101;49.438;11.098;2022-12-22T15:48:29;19.90;57.80
38237;DHT22;50101;49.438;11.098;2022-12-22T15:50:57;19.80;57.60
38237;DHT22;50101;49.438;11.098;2022-12-22T15:53:24;19.90;58.20
38237;DHT22;50101;49.438;11.098;2022-12-22T15:55:52;19.90;58.50
38237;DHT22;50101;49.438;11.098;2022-12-22T15:58:26;19.90;58.60
38237;DHT22;50101;49.438;11.098;2022-12-22T16:00:54;20.00;58.90
38237;DHT22;50101;49.438;11.098;2022-12-22T16:03:21;20.00;59.00
38237;DHT22;50101;49.438;11.098;2022-12-22T16:05:48;20.00;59.00
38237;DHT22;50101;49.438;11.098;2022-12-22T16:08:16;20.00;59.00
38237;DHT22;50101;49.438;11.098;2022-12-22T16:10:45;19.80;58.80
38237;DHT22;50101;49.438;11.098;2022-12-22T16:13:14;20.00;59.00
38237;DHT22;50101;49.438;11.098;2022-12-22T16:15:41;20.00;59.10
38237;DHT22;50101;49.438;11.098;2022-12-22T16:18:11;20.00;59.30
38237;DHT22;50101;49.438;11.098;2022-12-22T16:20:40;20.00;59.00
38237;DHT22;50101;49.438;11.098;2022-12-22T16:23:19;20.00;59.50
38237;DHT22;50101;49.438;11.098;2022-12-22T16:25:47;20.00;59.60
38237;DHT22;50101;49.438;11.098;2022-12-22T16:28:18;19.90;58.80
38237;DHT22;50101;49.438;11.098;2022-12-22T16:30:45;19.80;57.60
38237;DHT22;50101;49.438;11.098;2022-12-22T16:33:13;19.80;58.20
38237;DHT22;50101;49.438;11.098;2022-12-22T16:35:40;19.70;57.90
38237;DHT22;50101;49.438;11.098;2022-12-22T16:38:07;19.70;57.90
38237;DHT22;50101;49.438;11.098;2022-12-22T16:40:46;19.70;57.90
38237;DHT22;50101;49.438;11.098;2022-12-22T16:43:32;19.70;58.00
38237;DHT22;50101;49.438;11.098;2022-12-22T16:46:18;19.70;58.20
38237;DHT22;50101;49.438;11.098;2022-12-22T16:48:58;19.80;58.20
38237;DHT22;50101;49.438;11.098;2022-12-22T16:51:32;19.80;58.10
38237;DHT22;50101;49.438;11.098;2022-12-22T16:54:00;19.80;58.20
38237;DHT22;50101;49.438;11.098;2022-12-22T16:56:29;19.80;58.20
38237;DHT22;50101;49.438;11.098;2022-12-22T16:58:56;19.80;57.80
38237;DHT22;50101;49.438;11.098;2022-12-22T17:04:09;19.80;58.40
38237;DHT22;50101;49.438;11.098;2022-12-22T17:06:37;19.80;58.60
38237;DHT22;50101;49.438;11.098;2022-12-22T17:09:20;19.80;58.40
38237;DHT22;50101;49.438;11.098;2022-12-22T17:11:48;19.70;58.30
38237;DHT22;50101;49.438;11.098;2022-12-22T17:14:31;19.70;58.20
38237;DHT22;50101;49.438;11.098;2022-12-22T17:16:58;19.70;58.20
38237;DHT22;50101;49.438;11.098;2022-12-22T17:19:25;19.70;58.20
38237;DHT22;50101;49.438;11.098;2022-12-22T17:21:52;19.70;58.20
38237;DHT22;50101;49.438;11.098;2022-12-22T17:24:20;19.70;58.20
38237;DHT22;50101;49.438;11.098;2022-12-22T17:26:55;19.70;58.20
38237;DHT22;50101;49.438;11.098;2022-12-22T17:29:26;19.60;58.10
38237;DHT22;50101;49.438;11.098;2022-12-22T17:31:53;19.60;57.60
38237;DHT22;50101;49.438;11.098;2022-12-22T17:34:22;19.60;58.00
38237;DHT22;50101;49.438;11.098;2022-12-22T17:36:49;19.60;57.90
38237;DHT22;50101;49.438;11.098;2022-12-22T17:39:19;19.60;58.10
38237;DHT22;50101;49.438;11.098;2022-12-22T17:41:47;19.60;58.00
38237;DHT22;50101;49.438;11.098;2022-12-22T17:44:24;19.70;58.10